sensor_id;sensor_type;location;lat;lon;timestamp;P1;durP1;ratioP1;P2;durP2;ratioP2
16159;SDS011;8185;57.818;15.224;2022-10-26T00:01:07;4.10;;;1.53;;
16159;SDS011;8185;57.818;15.224;2022-10-26T00:03:36;4.17;;;1.00;;
16159;SDS011;8185;57.818;15.224;2022-10-26T00:06:05;0.80;;;0.80;;
16159;SDS011;8185;57.818;15.224;2022-10-26T00:08:34;2.40;;;0.90;;
16159;SDS011;8185;57.818;15.224;2022-10-26T00:11:02;1.80;;;0.97;;
16159;SDS011;8185;57.818;15.224;2022-10-26T00:13:31;2.70;;;1.23;;
16159;SDS011;8185;57.818;15.224;2022-10-26T00:15:59;3.07;;;0.97;;
16159;SDS011;8185;57.818;15.224;2022-10-26T00:18:26;5.10;;;0.93;;
16159;SDS011;8185;57.818;15.224;2022-10-26T00:20:54;4.83;;;1.47;;
16159;SDS011;8185;57.818;15.224;2022-10-26T00:23:28;4.77;;;0.90;;
16159;SDS011;8185;57.818;15.224;2022-10-26T00:25:56;3.00;;;0.80;;
16159;SDS011;8185;57.818;15.224;2022-10-26T00:28:24;6.83;;;1.97;;
16159;SDS011;8185;57.818;15.224;2022-10-26T00:30:53;4.77;;;1.00;;
16159;SDS011;8185;57.818;15.224;2022-10-26T00:33:23;1.77;;;0.90;;
16159;SDS011;8185;57.818;15.224;2022-10-26T00:35:52;3.43;;;0.83;;
16159;SDS011;8185;57.818;15.224;2022-10-26T00:38:19;3.37;;;1.03;;
16159;SDS011;8185;57.818;15.224;2022-10-26T00:40:47;3.17;;;0.90;;
16159;SDS011;8185;57.818;15.224;2022-10-26T00:43:15;3.83;;;0.90;;
16159;SDS011;8185;57.818;15.224;2022-10-26T00:45:59;2.87;;;0.87;;
16159;SDS011;8185;57.818;15.224;2022-10-26T00:48:30;3.43;;;0.90;;
16159;SDS011;8185;57.818;15.224;2022-10-26T00:51:03;1.93;;;0.90;;
16159;SDS011;8185;57.818;15.224;2022-10-26T00:53:34;4.00;;;0.93;;
16159;SDS011;8185;57.818;15.224;2022-10-26T00:56:02;3.17;;;0.90;;
16159;SDS011;8185;57.818;15.224;2022-10-26T00:58:30;2.93;;;0.67;;
16159;SDS011;8185;57.818;15.224;2022-10-26T01:01:00;2.20;;;0.80;;
16159;SDS011;8185;57.818;15.224;2022-10-26T01:03:27;1.73;;;0.80;;
16159;SDS011;8185;57.818;15.224;2022-10-26T01:05:56;2.30;;;0.57;;
16159;SDS011;8185;57.818;15.224;2022-10-26T01:08:24;2.40;;;0.70;;
16159;SDS011;8185;57.818;15.224;2022-10-26T01:10:53;2.80;;;1.10;;
16159;SDS011;8185;57.818;15.224;2022-10-26T01:13:22;3.33;;;1.00;;
16159;SDS011;8185;57.818;15.224;2022-10-26T01:15:55;2.60;;;0.70;;
16159;SDS011;8185;57.818;15.224;2022-10-26T01:18:37;1.27;;;0.53;;
16159;SDS011;8185;57.818;15.224;2022-10-26T01:21:15;1.20;;;0.43;;
16159;SDS011;8185;57.818;15.224;2022-10-26T01:27:12;2.70;;;0.67;;
16159;SDS011;8185;57.818;15.224;2022-10-26T01:29:50;3.20;;;1.03;;
16159;SDS011;8185;57.818;15.224;2022-10-26T01:32:43;4.33;;;1.50;;
16159;SDS011;8185;57.818;15.224;2022-10-26T01:35:13;4.10;;;0.90;;
16159;SDS011;8185;57.818;15.224;2022-10-26T01:37:46;2.40;;;0.90;;
16159;SDS011;8185;57.818;15.224;2022-10-26T01:40:20;2.73;;;0.80;;
16159;SDS011;8185;57.818;15.224;2022-10-26T01:42:52;2.50;;;0.90;;
16159;SDS011;8185;57.818;15.224;2022-10-26T01:45:24;3.83;;;1.10;;
16159;SDS011;8185;57.818;15.224;2022-10-26T01:47:55;4.03;;;1.10;;
16159;SDS011;8185;57.818;15.224;2022-10-26T01:50:25;3.27;;;1.40;;
16159;SDS011;8185;57.818;15.224;2022-10-26T01:52:53;3.70;;;0.80;;
16159;SDS011;8185;57.818;15.224;2022-10-26T01:55:39;2.13;;;0.90;;
16159;SDS011;8185;57.818;15.224;2022-10-26T01:58:14;3.23;;;1.53;;
16159;SDS011;8185;57.818;15.224;2022-10-26T02:01:07;2.13;;;1.30;;
16159;SDS011;8185;57.818;15.224;2022-10-26T02:03:48;3.07;;;1.90;;
16159;SDS011;8185;57.818;15.224;2022-10-26T02:06:24;5.83;;;2.90;;
16159;SDS011;8185;57.818;15.224;2022-10-26T02:09:03;4.40;;;3.50;;
16159;SDS011;8185;57.818;15.224;2022-10-26T02:11:44;2.37;;;1.67;;
16159;SDS011;8185;57.818;15.224;2022-10-26T02:14:17;4.13;;;2.43;;
16159;SDS011;8185;57.818;15.224;2022-10-26T02:16:50;4.20;;;2.43;;
16159;SDS011;8185;57.818;15.224;2022-10-26T02:19:24;2.00;;;1.80;;
16159;SDS011;8185;57.818;15.224;2022-10-26T02:22:00;4.07;;;2.50;;
16159;SDS011;8185;57.818;15.224;2022-10-26T02:24:33;2.30;;;0.97;;
16159;SDS011;8185;57.818;15.224;2022-10-26T02:27:02;4.47;;;2.70;;
16159;SDS011;8185;57.818;15.224;2022-10-26T02:29:32;4.27;;;2.50;;
16159;SDS011;8185;57.818;15.224;2022-10-26T02:32:04;2.83;;;2.30;;
16159;SDS011;8185;57.818;15.224;2022-10-26T02:34:32;3.90;;;1.60;;
16159;SDS011;8185;57.818;15.224;2022-10-26T02:37:03;4.63;;;3.00;;
16159;SDS011;8185;57.818;15.224;2022-10-26T02:39:31;1.83;;;0.97;;
16159;SDS011;8185;57.818;15.224;2022-10-26T02:42:02;1.47;;;0.83;;
16159;SDS011;8185;57.818;15.224;2022-10-26T02:44:32;1.97;;;1.10;;
16159;SDS011;8185;57.818;15.224;2022-10-26T02:47:06;2.50;;;1.20;;
16159;SDS011;8185;57.818;15.224;2022-10-26T02:49:34;2.73;;;1.03;;
16159;SDS011;8185;57.818;15.224;2022-10-26T02:52:02;1.93;;;1.13;;
16159;SDS011;8185;57.818;15.224;2022-10-26T02:54:35;3.93;;;1.67;;
16159;SDS011;8185;57.818;15.224;2022-10-26T02:57:11;2.60;;;0.93;;
16159;SDS011;8185;57.818;15.224;2022-10-26T02:59:41;1.50;;;1.00;;
16159;SDS011;8185;57.818;15.224;2022-10-26T03:02:13;5.33;;;1.67;;
16159;SDS011;8185;57.818;15.224;2022-10-26T03:04:42;4.43;;;1.30;;
16159;SDS011;8185;57.818;15.224;2022-10-26T03:07:09;2.10;;;0.70;;
16159;SDS011;8185;57.818;15.224;2022-10-26T03:09:37;3.57;;;1.00;;
16159;SDS011;8185;57.818;15.224;2022-10-26T03:12:04;3.17;;;0.93;;
16159;SDS011;8185;57.818;15.224;2022-10-26T03:14:31;3.73;;;1.13;;
16159;SDS011;8185;57.818;15.224;2022-10-26T03:16:59;3.40;;;0.90;;
16159;SDS011;8185;57.818;15.224;2022-10-26T03:19:28;3.83;;;1.67;;
16159;SDS011;8185;57.818;15.224;2022-10-26T03:21:55;3.53;;;1.30;;
16159;SDS011;8185;57.818;15.224;2022-10-26T03:24:22;1.97;;;0.87;;
16159;SDS011;8185;57.818;15.224;2022-10-26T03:26:50;2.33;;;1.00;;
16159;SDS011;8185;57.818;15.224;2022-10-26T03:29:17;4.97;;;1.70;;
16159;SDS011;8185;57.818;15.224;2022-10-26T03:31:44;3.47;;;1.00;;
16159;SDS011;8185;57.818;15.224;2022-10-26T03:34:13;2.13;;;1.13;;
16159;SDS011;8185;57.818;15.224;2022-10-26T03:36:42;2.40;;;1.07;;
16159;SDS011;8185;57.818;15.224;2022-10-26T03:39:09;1.60;;;1.00;;
16159;SDS011;8185;57.818;15.224;2022-10-26T03:41:37;4.20;;;1.30;;
16159;SDS011;8185;57.818;15.224;2022-10-26T03:44:04;6.27;;;1.00;;
16159;SDS011;8185;57.818;15.224;2022-10-26T03:46:32;2.63;;;0.83;;
16159;SDS011;8185;57.818;15.224;2022-10-26T03:48:59;4.37;;;1.50;;
16159;SDS011;8185;57.818;15.224;2022-10-26T03:51:26;1.00;;;0.60;;
16159;SDS011;8185;57.818;15.224;2022-10-26T03:53:55;3.20;;;0.70;;
16159;SDS011;8185;57.818;15.224;2022-10-26T03:56:23;2.53;;;0.50;;
16159;SDS011;8185;57.818;15.224;2022-10-26T03:58:50;5.67;;;0.80;;
16159;SDS011;8185;57.818;15.224;2022-10-26T04:01:18;2.37;;;0.60;;
16159;SDS011;8185;57.818;15.224;2022-10-26T04:03:45;2.33;;;1.00;;
16159;SDS011;8185;57.818;15.224;2022-10-26T04:06:12;2.33;;;0.60;;
16159;SDS011;8185;57.818;15.224;2022-10-26T04:08:40;4.60;;;0.80;;
16159;SDS011;8185;57.818;15.224;2022-10-26T04:11:09;2.27;;;0.80;;
16159;SDS011;8185;57.818;15.224;2022-10-26T04:13:36;2.33;;;0.77;;
16159;SDS011;8185;57.818;15.224;2022-10-26T04:16:04;3.33;;;1.00;;
16159;SDS011;8185;57.818;15.224;2022-10-26T04:18:31;6.03;;;1.07;;
16159;SDS011;8185;57.818;15.224;2022-10-26T04:20:59;4.57;;;0.73;;
16159;SDS011;8185;57.818;15.224;2022-10-26T04:23:27;5.03;;;0.90;;
16159;SDS011;8185;57.818;15.224;2022-10-26T04:25:54;4.57;;;0.90;;
16159;SDS011;8185;57.818;15.224;2022-10-26T04:28:23;5.50;;;0.90;;
16159;SDS011;8185;57.818;15.224;2022-10-26T04:30:50;6.13;;;1.03;;
16159;SDS011;8185;57.818;15.224;2022-10-26T04:33:18;6.57;;;1.00;;
16159;SDS011;8185;57.818;15.224;2022-10-26T04:35:45;1.90;;;0.70;;
16159;SDS011;8185;57.818;15.224;2022-10-26T04:38:13;4.77;;;0.90;;
16159;SDS011;8185;57.818;15.224;2022-10-26T04:40:40;4.10;;;0.87;;
16159;SDS011;8185;57.818;15.224;2022-10-26T04:43:07;2.47;;;0.67;;
16159;SDS011;8185;57.818;15.224;2022-10-26T04:45:37;3.90;;;1.17;;
16159;SDS011;8185;57.818;15.224;2022-10-26T04:48:05;4.10;;;1.10;;
16159;SDS011;8185;57.818;15.224;2022-10-26T04:50:36;3.83;;;0.80;;
16159;SDS011;8185;57.818;15.224;2022-10-26T04:53:03;7.83;;;1.10;;
16159;SDS011;8185;57.818;15.224;2022-10-26T04:55:31;3.93;;;0.80;;
16159;SDS011;8185;57.818;15.224;2022-10-26T04:57:59;2.83;;;0.73;;
16159;SDS011;8185;57.818;15.224;2022-10-26T05:00:27;3.57;;;0.80;;
16159;SDS011;8185;57.818;15.224;2022-10-26T05:02:59;2.20;;;0.67;;
16159;SDS011;8185;57.818;15.224;2022-10-26T05:05:27;4.20;;;1.00;;
16159;SDS011;8185;57.818;15.224;2022-10-26T05:07:56;4.57;;;0.90;;
16159;SDS011;8185;57.818;15.224;2022-10-26T05:10:24;4.73;;;0.90;;
16159;SDS011;8185;57.818;15.224;2022-10-26T05:12:52;5.13;;;1.00;;
16159;SDS011;8185;57.818;15.224;2022-10-26T05:15:20;5.97;;;0.90;;
16159;SDS011;8185;57.818;15.224;2022-10-26T05:17:53;4.03;;;1.20;;
16159;SDS011;8185;57.818;15.224;2022-10-26T05:20:23;3.20;;;1.20;;
16159;SDS011;8185;57.818;15.224;2022-10-26T05:22:54;3.03;;;0.80;;
16159;SDS011;8185;57.818;15.224;2022-10-26T05:25:22;4.73;;;0.80;;
16159;SDS011;8185;57.818;15.224;2022-10-26T05:27:50;2.47;;;0.77;;
16159;SDS011;8185;57.818;15.224;2022-10-26T05:30:17;6.20;;;1.13;;
16159;SDS011;8185;57.818;15.224;2022-10-26T05:32:45;3.77;;;0.73;;
16159;SDS011;8185;57.818;15.224;2022-10-26T05:35:28;3.60;;;0.87;;
16159;SDS011;8185;57.818;15.224;2022-10-26T05:37:57;3.20;;;0.90;;
16159;SDS011;8185;57.818;15.224;2022-10-26T05:40:25;1.73;;;0.73;;
16159;SDS011;8185;57.818;15.224;2022-10-26T05:42:52;2.90;;;1.07;;
16159;SDS011;8185;57.818;15.224;2022-10-26T05:45:26;1.40;;;0.67;;
16159;SDS011;8185;57.818;15.224;2022-10-26T05:47:53;3.27;;;0.90;;
16159;SDS011;8185;57.818;15.224;2022-10-26T05:50:21;2.40;;;0.60;;
16159;SDS011;8185;57.818;15.224;2022-10-26T05:52:49;3.63;;;1.23;;
16159;SDS011;8185;57.818;15.224;2022-10-26T05:55:17;5.20;;;1.03;;
16159;SDS011;8185;57.818;15.224;2022-10-26T05:57:45;1.97;;;0.70;;
16159;SDS011;8185;57.818;15.224;2022-10-26T06:00:17;1.23;;;0.70;;
16159;SDS011;8185;57.818;15.224;2022-10-26T06:02:53;3.10;;;1.53;;
16159;SDS011;8185;57.818;15.224;2022-10-26T06:05:30;2.30;;;0.70;;
16159;SDS011;8185;57.818;15.224;2022-10-26T06:08:03;5.07;;;0.90;;
16159;SDS011;8185;57.818;15.224;2022-10-26T06:10:36;5.07;;;0.80;;
16159;SDS011;8185;57.818;15.224;2022-10-26T06:13:04;2.47;;;0.67;;
16159;SDS011;8185;57.818;15.224;2022-10-26T06:15:32;4.30;;;0.80;;
16159;SDS011;8185;57.818;15.224;2022-10-26T06:18:10;8.47;;;1.60;;
16159;SDS011;8185;57.818;15.224;2022-10-26T06:20:48;3.80;;;0.70;;
16159;SDS011;8185;57.818;15.224;2022-10-26T06:23:31;2.23;;;0.90;;
16159;SDS011;8185;57.818;15.224;2022-10-26T06:26:06;1.20;;;0.70;;
16159;SDS011;8185;57.818;15.224;2022-10-26T06:28:42;5.20;;;0.87;;
16159;SDS011;8185;57.818;15.224;2022-10-26T06:31:16;1.90;;;0.87;;
16159;SDS011;8185;57.818;15.224;2022-10-26T06:33:43;2.00;;;0.70;;
16159;SDS011;8185;57.818;15.224;2022-10-26T06:36:15;3.57;;;1.00;;
16159;SDS011;8185;57.818;15.224;2022-10-26T06:38:49;5.07;;;0.90;;
16159;SDS011;8185;57.818;15.224;2022-10-26T06:41:21;0.83;;;0.50;;
16159;SDS011;8185;57.818;15.224;2022-10-26T06:43:49;4.03;;;1.10;;
16159;SDS011;8185;57.818;15.224;2022-10-26T06:46:21;1.40;;;0.70;;
16159;SDS011;8185;57.818;15.224;2022-10-26T06:49:00;3.07;;;0.73;;
16159;SDS011;8185;57.818;15.224;2022-10-26T06:51:35;3.13;;;0.90;;
16159;SDS011;8185;57.818;15.224;2022-10-26T06:54:12;1.87;;;1.07;;
16159;SDS011;8185;57.818;15.224;2022-10-26T06:56:44;2.63;;;0.77;;
16159;SDS011;8185;57.818;15.224;2022-10-26T06:59:13;2.70;;;0.80;;
16159;SDS011;8185;57.818;15.224;2022-10-26T07:01:47;4.53;;;1.70;;
16159;SDS011;8185;57.818;15.224;2022-10-26T07:04:15;3.10;;;0.70;;
16159;SDS011;8185;57.818;15.224;2022-10-26T07:06:42;7.37;;;1.00;;
16159;SDS011;8185;57.818;15.224;2022-10-26T07:09:09;4.33;;;0.80;;
16159;SDS011;8185;57.818;15.224;2022-10-26T07:11:38;4.00;;;1.37;;
16159;SDS011;8185;57.818;15.224;2022-10-26T07:14:05;1.87;;;0.53;;
16159;SDS011;8185;57.818;15.224;2022-10-26T07:16:33;2.63;;;0.70;;
16159;SDS011;8185;57.818;15.224;2022-10-26T07:19:01;2.13;;;0.77;;
16159;SDS011;8185;57.818;15.224;2022-10-26T07:21:28;5.37;;;0.80;;
16159;SDS011;8185;57.818;15.224;2022-10-26T07:23:56;4.73;;;0.77;;
16159;SDS011;8185;57.818;15.224;2022-10-26T07:26:25;3.47;;;0.70;;
16159;SDS011;8185;57.818;15.224;2022-10-26T07:28:53;2.53;;;0.57;;
16159;SDS011;8185;57.818;15.224;2022-10-26T07:31:20;2.20;;;0.70;;
16159;SDS011;8185;57.818;15.224;2022-10-26T07:33:48;2.70;;;1.00;;
16159;SDS011;8185;57.818;15.224;2022-10-26T07:36:15;2.50;;;0.70;;
16159;SDS011;8185;57.818;15.224;2022-10-26T07:38:42;2.10;;;0.80;;
16159;SDS011;8185;57.818;15.224;2022-10-26T07:41:10;3.67;;;0.80;;
16159;SDS011;8185;57.818;15.224;2022-10-26T07:43:39;2.30;;;0.60;;
16159;SDS011;8185;57.818;15.224;2022-10-26T07:46:09;3.80;;;0.67;;
16159;SDS011;8185;57.818;15.224;2022-10-26T07:48:36;1.37;;;0.80;;
16159;SDS011;8185;57.818;15.224;2022-10-26T07:51:04;4.03;;;0.80;;
16159;SDS011;8185;57.818;15.224;2022-10-26T07:53:31;1.10;;;0.50;;
16159;SDS011;8185;57.818;15.224;2022-10-26T07:55:58;2.67;;;0.67;;
16159;SDS011;8185;57.818;15.224;2022-10-26T07:58:26;3.03;;;0.70;;
16159;SDS011;8185;57.818;15.224;2022-10-26T08:00:54;0.77;;;0.70;;
16159;SDS011;8185;57.818;15.224;2022-10-26T08:03:22;2.10;;;0.63;;
16159;SDS011;8185;57.818;15.224;2022-10-26T08:05:50;0.90;;;0.80;;
16159;SDS011;8185;57.818;15.224;2022-10-26T08:08:20;3.07;;;0.77;;
16159;SDS011;8185;57.818;15.224;2022-10-26T08:10:47;2.43;;;0.70;;
16159;SDS011;8185;57.818;15.224;2022-10-26T08:13:16;3.20;;;0.80;;
16159;SDS011;8185;57.818;15.224;2022-10-26T08:15:43;3.07;;;0.90;;
16159;SDS011;8185;57.818;15.224;2022-10-26T08:18:13;2.33;;;0.83;;
16159;SDS011;8185;57.818;15.224;2022-10-26T08:20:40;3.53;;;0.70;;
16159;SDS011;8185;57.818;15.224;2022-10-26T08:23:08;4.43;;;0.67;;
16159;SDS011;8185;57.818;15.224;2022-10-26T08:25:35;2.83;;;0.67;;
16159;SDS011;8185;57.818;15.224;2022-10-26T08:28:03;4.63;;;1.00;;
16159;SDS011;8185;57.818;15.224;2022-10-26T08:30:30;0.70;;;0.40;;
16159;SDS011;8185;57.818;15.224;2022-10-26T08:32:58;5.10;;;1.10;;
16159;SDS011;8185;57.818;15.224;2022-10-26T08:35:27;2.87;;;0.80;;
16159;SDS011;8185;57.818;15.224;2022-10-26T08:37:55;1.33;;;0.70;;
16159;SDS011;8185;57.818;15.224;2022-10-26T08:40:23;2.57;;;0.80;;
16159;SDS011;8185;57.818;15.224;2022-10-26T08:42:56;3.00;;;0.87;;
16159;SDS011;8185;57.818;15.224;2022-10-26T08:45:28;3.27;;;0.77;;
16159;SDS011;8185;57.818;15.224;2022-10-26T08:47:59;2.00;;;0.90;;
16159;SDS011;8185;57.818;15.224;2022-10-26T08:50:32;2.00;;;0.60;;
16159;SDS011;8185;57.818;15.224;2022-10-26T08:53:05;2.53;;;1.30;;
16159;SDS011;8185;57.818;15.224;2022-10-26T08:55:41;1.57;;;0.60;;
16159;SDS011;8185;57.818;15.224;2022-10-26T08:58:13;2.87;;;0.73;;
16159;SDS011;8185;57.818;15.224;2022-10-26T09:00:43;1.10;;;0.70;;
16159;SDS011;8185;57.818;15.224;2022-10-26T09:03:14;1.87;;;0.50;;
16159;SDS011;8185;57.818;15.224;2022-10-26T09:05:47;1.87;;;0.77;;
16159;SDS011;8185;57.818;15.224;2022-10-26T09:08:36;3.27;;;1.00;;
16159;SDS011;8185;57.818;15.224;2022-10-26T09:11:12;1.67;;;0.77;;
16159;SDS011;8185;57.818;15.224;2022-10-26T09:13:51;2.90;;;0.80;;
16159;SDS011;8185;57.818;15.224;2022-10-26T09:16:29;4.10;;;0.63;;
16159;SDS011;8185;57.818;15.224;2022-10-26T09:19:10;4.53;;;0.70;;
16159;SDS011;8185;57.818;15.224;2022-10-26T09:22:11;1.77;;;0.50;;
16159;SDS011;8185;57.818;15.224;2022-10-26T09:24:47;1.80;;;0.70;;
16159;SDS011;8185;57.818;15.224;2022-10-26T09:27:19;0.67;;;0.50;;
16159;SDS011;8185;57.818;15.224;2022-10-26T09:29:52;1.40;;;0.70;;
16159;SDS011;8185;57.818;15.224;2022-10-26T09:32:22;4.13;;;0.73;;
16159;SDS011;8185;57.818;15.224;2022-10-26T09:34:55;3.13;;;0.63;;
16159;SDS011;8185;57.818;15.224;2022-10-26T09:37:28;2.10;;;0.60;;
16159;SDS011;8185;57.818;15.224;2022-10-26T09:40:05;1.90;;;0.40;;
16159;SDS011;8185;57.818;15.224;2022-10-26T09:42:39;1.80;;;0.40;;
16159;SDS011;8185;57.818;15.224;2022-10-26T09:45:12;2.00;;;0.70;;
16159;SDS011;8185;57.818;15.224;2022-10-26T09:47:44;6.47;;;0.80;;
16159;SDS011;8185;57.818;15.224;2022-10-26T09:50:19;1.47;;;0.70;;
16159;SDS011;8185;57.818;15.224;2022-10-26T09:52:51;4.10;;;1.10;;
16159;SDS011;8185;57.818;15.224;2022-10-26T09:55:19;2.70;;;0.70;;
16159;SDS011;8185;57.818;15.224;2022-10-26T09:57:47;1.33;;;0.67;;
16159;SDS011;8185;57.818;15.224;2022-10-26T10:00:23;1.70;;;0.80;;
16159;SDS011;8185;57.818;15.224;2022-10-26T10:02:53;1.23;;;0.67;;
16159;SDS011;8185;57.818;15.224;2022-10-26T10:05:23;0.87;;;0.50;;
16159;SDS011;8185;57.818;15.224;2022-10-26T10:10:52;4.17;;;0.70;;
16159;SDS011;8185;57.818;15.224;2022-10-26T10:13:24;2.17;;;0.63;;
16159;SDS011;8185;57.818;15.224;2022-10-26T10:15:53;3.27;;;0.90;;
16159;SDS011;8185;57.818;15.224;2022-10-26T10:18:27;1.60;;;0.80;;
16159;SDS011;8185;57.818;15.224;2022-10-26T10:20:56;4.27;;;0.60;;
16159;SDS011;8185;57.818;15.224;2022-10-26T10:23:30;3.07;;;0.63;;
16159;SDS011;8185;57.818;15.224;2022-10-26T10:25:59;0.57;;;0.40;;
16159;SDS011;8185;57.818;15.224;2022-10-26T10:28:31;2.37;;;1.17;;
16159;SDS011;8185;57.818;15.224;2022-10-26T10:30:59;4.53;;;1.80;;
16159;SDS011;8185;57.818;15.224;2022-10-26T10:33:35;3.97;;;1.10;;
16159;SDS011;8185;57.818;15.224;2022-10-26T10:36:05;3.20;;;0.90;;
16159;SDS011;8185;57.818;15.224;2022-10-26T10:38:37;2.63;;;0.50;;
16159;SDS011;8185;57.818;15.224;2022-10-26T10:41:13;1.03;;;0.60;;
16159;SDS011;8185;57.818;15.224;2022-10-26T10:43:44;2.10;;;0.40;;
16159;SDS011;8185;57.818;15.224;2022-10-26T10:46:16;1.87;;;0.50;;
16159;SDS011;8185;57.818;15.224;2022-10-26T10:48:51;1.70;;;0.50;;
16159;SDS011;8185;57.818;15.224;2022-10-26T10:51:22;2.10;;;0.70;;
16159;SDS011;8185;57.818;15.224;2022-10-26T10:53:52;3.13;;;0.47;;
16159;SDS011;8185;57.818;15.224;2022-10-26T10:59:18;1.93;;;0.40;;
16159;SDS011;8185;57.818;15.224;2022-10-26T11:02:05;1.13;;;0.40;;
16159;SDS011;8185;57.818;15.224;2022-10-26T11:05:02;1.73;;;0.50;;
16159;SDS011;8185;57.818;15.224;2022-10-26T11:07:43;0.87;;;0.47;;
16159;SDS011;8185;57.818;15.224;2022-10-26T11:10:17;0.70;;;0.40;;
16159;SDS011;8185;57.818;15.224;2022-10-26T11:12:48;1.03;;;0.50;;
16159;SDS011;8185;57.818;15.224;2022-10-26T11:15:21;1.10;;;0.50;;
16159;SDS011;8185;57.818;15.224;2022-10-26T11:17:52;0.97;;;0.60;;
16159;SDS011;8185;57.818;15.224;2022-10-26T11:20:23;0.67;;;0.40;;
16159;SDS011;8185;57.818;15.224;2022-10-26T11:22:59;0.90;;;0.50;;
16159;SDS011;8185;57.818;15.224;2022-10-26T11:25:34;3.20;;;0.60;;
16159;SDS011;8185;57.818;15.224;2022-10-26T11:28:10;3.03;;;0.60;;
16159;SDS011;8185;57.818;15.224;2022-10-26T11:30:43;3.23;;;0.80;;
16159;SDS011;8185;57.818;15.224;2022-10-26T11:33:15;0.97;;;0.73;;
16159;SDS011;8185;57.818;15.224;2022-10-26T11:35:51;1.87;;;0.80;;
16159;SDS011;8185;57.818;15.224;2022-10-26T11:38:23;1.13;;;0.50;;
16159;SDS011;8185;57.818;15.224;2022-10-26T11:41:01;2.80;;;0.63;;
16159;SDS011;8185;57.818;15.224;2022-10-26T11:43:36;1.73;;;1.13;;
16159;SDS011;8185;57.818;15.224;2022-10-26T11:46:07;1.87;;;0.87;;
16159;SDS011;8185;57.818;15.224;2022-10-26T11:48:39;1.27;;;0.40;;
16159;SDS011;8185;57.818;15.224;2022-10-26T11:51:15;1.80;;;0.40;;
16159;SDS011;8185;57.818;15.224;2022-10-26T11:53:47;1.07;;;0.40;;
16159;SDS011;8185;57.818;15.224;2022-10-26T11:56:20;2.63;;;0.40;;
16159;SDS011;8185;57.818;15.224;2022-10-26T11:58:52;3.37;;;0.60;;
16159;SDS011;8185;57.818;15.224;2022-10-26T12:01:21;0.87;;;0.30;;
16159;SDS011;8185;57.818;15.224;2022-10-26T12:03:50;1.47;;;0.43;;
16159;SDS011;8185;57.818;15.224;2022-10-26T12:06:21;1.97;;;0.50;;
16159;SDS011;8185;57.818;15.224;2022-10-26T12:08:53;1.70;;;0.40;;
16159;SDS011;8185;57.818;15.224;2022-10-26T12:11:30;0.97;;;0.40;;
16159;SDS011;8185;57.818;15.224;2022-10-26T12:14:05;1.80;;;0.83;;
16159;SDS011;8185;57.818;15.224;2022-10-26T12:16:45;1.67;;;0.60;;
16159;SDS011;8185;57.818;15.224;2022-10-26T12:19:18;1.47;;;0.70;;
16159;SDS011;8185;57.818;15.224;2022-10-26T12:21:51;2.17;;;0.70;;
16159;SDS011;8185;57.818;15.224;2022-10-26T12:24:26;1.00;;;0.40;;
16159;SDS011;8185;57.818;15.224;2022-10-26T12:26:59;3.03;;;0.40;;
16159;SDS011;8185;57.818;15.224;2022-10-26T12:29:35;0.80;;;0.40;;
16159;SDS011;8185;57.818;15.224;2022-10-26T12:35:28;1.40;;;0.57;;
16159;SDS011;8185;57.818;15.224;2022-10-26T12:38:01;1.13;;;0.50;;
16159;SDS011;8185;57.818;15.224;2022-10-26T12:40:43;1.43;;;0.50;;
16159;SDS011;8185;57.818;15.224;2022-10-26T12:52:16;3.50;;;0.70;;
16159;SDS011;8185;57.818;15.224;2022-10-26T12:54:49;1.03;;;0.60;;
16159;SDS011;8185;57.818;15.224;2022-10-26T12:57:31;1.87;;;0.80;;
16159;SDS011;8185;57.818;15.224;2022-10-26T13:00:10;0.53;;;0.30;;
16159;SDS011;8185;57.818;15.224;2022-10-26T13:02:47;1.07;;;0.70;;
16159;SDS011;8185;57.818;15.224;2022-10-26T13:05:27;2.20;;;0.40;;
16159;SDS011;8185;57.818;15.224;2022-10-26T13:08:11;1.83;;;0.40;;
16159;SDS011;8185;57.818;15.224;2022-10-26T13:10:45;4.00;;;0.80;;
16159;SDS011;8185;57.818;15.224;2022-10-26T13:13:27;0.87;;;0.80;;
16159;SDS011;8185;57.818;15.224;2022-10-26T13:15:58;3.30;;;0.70;;
16159;SDS011;8185;57.818;15.224;2022-10-26T13:18:27;3.90;;;2.00;;
16159;SDS011;8185;57.818;15.224;2022-10-26T13:21:06;6.47;;;3.73;;
16159;SDS011;8185;57.818;15.224;2022-10-26T13:23:37;4.47;;;1.93;;
16159;SDS011;8185;57.818;15.224;2022-10-26T13:26:07;3.33;;;0.80;;
16159;SDS011;8185;57.818;15.224;2022-10-26T13:28:44;5.37;;;0.77;;
16159;SDS011;8185;57.818;15.224;2022-10-26T13:34:22;1.47;;;0.50;;
16159;SDS011;8185;57.818;15.224;2022-10-26T13:36:56;3.07;;;1.50;;
16159;SDS011;8185;57.818;15.224;2022-10-26T13:39:40;5.20;;;2.27;;
16159;SDS011;8185;57.818;15.224;2022-10-26T13:42:11;7.43;;;3.60;;
16159;SDS011;8185;57.818;15.224;2022-10-26T13:44:43;6.70;;;5.27;;
16159;SDS011;8185;57.818;15.224;2022-10-26T13:47:27;8.20;;;4.77;;
16159;SDS011;8185;57.818;15.224;2022-10-26T13:49:58;1.93;;;1.70;;
16159;SDS011;8185;57.818;15.224;2022-10-26T13:52:32;2.10;;;1.40;;
16159;SDS011;8185;57.818;15.224;2022-10-26T13:55:03;2.90;;;1.30;;
16159;SDS011;8185;57.818;15.224;2022-10-26T13:57:36;4.07;;;1.03;;
16159;SDS011;8185;57.818;15.224;2022-10-26T14:00:08;1.90;;;0.57;;
16159;SDS011;8185;57.818;15.224;2022-10-26T14:02:42;1.00;;;0.57;;
16159;SDS011;8185;57.818;15.224;2022-10-26T14:05:11;1.90;;;0.50;;
16159;SDS011;8185;57.818;15.224;2022-10-26T14:07:40;3.07;;;1.17;;
16159;SDS011;8185;57.818;15.224;2022-10-26T14:10:20;2.00;;;0.90;;
16159;SDS011;8185;57.818;15.224;2022-10-26T14:12:52;1.77;;;0.57;;
16159;SDS011;8185;57.818;15.224;2022-10-26T14:15:21;1.37;;;0.60;;
16159;SDS011;8185;57.818;15.224;2022-10-26T14:17:53;6.77;;;0.77;;
16159;SDS011;8185;57.818;15.224;2022-10-26T14:20:21;1.40;;;1.30;;
16159;SDS011;8185;57.818;15.224;2022-10-26T14:22:51;1.27;;;0.60;;
16159;SDS011;8185;57.818;15.224;2022-10-26T14:25:20;2.40;;;0.77;;
16159;SDS011;8185;57.818;15.224;2022-10-26T14:27:49;2.37;;;0.60;;
16159;SDS011;8185;57.818;15.224;2022-10-26T14:30:19;1.63;;;0.87;;
16159;SDS011;8185;57.818;15.224;2022-10-26T14:32:49;0.90;;;0.50;;
16159;SDS011;8185;57.818;15.224;2022-10-26T14:35:18;1.43;;;0.50;;
16159;SDS011;8185;57.818;15.224;2022-10-26T14:37:50;3.30;;;0.70;;
16159;SDS011;8185;57.818;15.224;2022-10-26T14:40:20;1.17;;;0.50;;
16159;SDS011;8185;57.818;15.224;2022-10-26T14:42:51;1.70;;;0.60;;
16159;SDS011;8185;57.818;15.224;2022-10-26T14:45:24;2.20;;;0.80;;
16159;SDS011;8185;57.818;15.224;2022-10-26T14:47:56;2.03;;;1.30;;
16159;SDS011;8185;57.818;15.224;2022-10-26T14:50:26;3.40;;;1.17;;
16159;SDS011;8185;57.818;15.224;2022-10-26T14:52:58;3.33;;;1.90;;
16159;SDS011;8185;57.818;15.224;2022-10-26T14:55:29;3.37;;;1.20;;
16159;SDS011;8185;57.818;15.224;2022-10-26T14:58:13;3.47;;;3.00;;
16159;SDS011;8185;57.818;15.224;2022-10-26T15:00:43;1.40;;;1.30;;
16159;SDS011;8185;57.818;15.224;2022-10-26T15:03:13;1.83;;;0.80;;
16159;SDS011;8185;57.818;15.224;2022-10-26T15:05:43;2.10;;;1.20;;
16159;SDS011;8185;57.818;15.224;2022-10-26T15:11:06;1.33;;;1.23;;
16159;SDS011;8185;57.818;15.224;2022-10-26T15:13:34;1.40;;;1.10;;
16159;SDS011;8185;57.818;15.224;2022-10-26T15:16:06;3.63;;;1.43;;
16159;SDS011;8185;57.818;15.224;2022-10-26T15:18:36;1.37;;;0.60;;
16159;SDS011;8185;57.818;15.224;2022-10-26T15:21:22;2.33;;;1.40;;
16159;SDS011;8185;57.818;15.224;2022-10-26T15:23:51;1.17;;;0.50;;
16159;SDS011;8185;57.818;15.224;2022-10-26T15:26:20;1.40;;;1.30;;
16159;SDS011;8185;57.818;15.224;2022-10-26T15:28:48;3.83;;;1.20;;
16159;SDS011;8185;57.818;15.224;2022-10-26T15:34:12;2.60;;;0.87;;
16159;SDS011;8185;57.818;15.224;2022-10-26T15:36:41;1.27;;;0.50;;
16159;SDS011;8185;57.818;15.224;2022-10-26T15:39:09;2.83;;;1.17;;
16159;SDS011;8185;57.818;15.224;2022-10-26T15:41:37;3.23;;;2.07;;
16159;SDS011;8185;57.818;15.224;2022-10-26T15:44:11;1.60;;;0.70;;